createdAt,value
2018-11-26T00:01:22.969Z,18.77
2018-11-26T00:03:52.313Z,15.28
2018-11-26T00:06:21.594Z,16.97
2018-11-26T00:08:50.903Z,8.98
2018-11-26T00:11:39.476Z,16.30
2018-11-26T00:14:08.770Z,16.32
2018-11-26T00:16:38.065Z,9.65
2018-11-26T00:19:07.415Z,12.58
2018-11-26T00:21:36.734Z,15.45
2018-11-26T00:24:06.130Z,10.20
2018-11-26T00:26:35.418Z,7.87
2018-11-26T00:29:04.749Z,15.75
2018-11-26T00:31:34.062Z,8.63
2018-11-26T00:34:03.355Z,7.75
2018-11-26T00:36:32.656Z,8.93
2018-11-26T00:39:01.968Z,7.97
2018-11-26T00:41:31.280Z,9.33
2018-11-26T00:44:00.568Z,8.93
2018-11-26T00:46:29.862Z,10.25
2018-11-26T00:48:59.190Z,10.03
2018-11-26T00:51:28.520Z,12.13
2018-11-26T00:53:57.914Z,13.90
2018-11-26T00:56:27.203Z,7.37
2018-11-26T00:58:56.608Z,8.33
2018-11-26T01:01:25.889Z,9.50
2018-11-26T01:03:55.197Z,7.55
2018-11-26T01:06:24.491Z,12.63
2018-11-26T01:08:53.794Z,8.85
2018-11-26T01:11:23.070Z,6.10
2018-11-26T01:13:52.389Z,7.40
2018-11-26T01:16:21.706Z,10.25
2018-11-26T01:18:51.001Z,9.45
2018-11-26T01:21:20.319Z,10.68
2018-11-26T01:23:49.613Z,8.40
2018-11-26T01:26:18.911Z,8.88
2018-11-26T01:28:48.211Z,9.88
2018-11-26T01:31:17.589Z,8.60
2018-11-26T01:33:46.877Z,9.78
2018-11-26T01:36:16.290Z,7.80
2018-11-26T01:38:45.562Z,11.05
2018-11-26T01:41:14.868Z,10.95
2018-11-26T01:43:44.160Z,12.28
2018-11-26T01:46:13.474Z,9.93
2018-11-26T01:48:42.760Z,6.05
2018-11-26T01:51:12.053Z,6.37
2018-11-26T01:53:41.457Z,5.20
2018-11-26T01:56:10.755Z,8.15
2018-11-26T01:58:40.044Z,5.83
2018-11-26T02:01:09.355Z,6.97
2018-11-26T02:03:38.652Z,5.60
2018-11-26T02:06:07.953Z,9.73
2018-11-26T02:08:37.258Z,6.40
2018-11-26T02:11:07.330Z,7.70
2018-11-26T02:13:36.817Z,10.35
2018-11-26T02:16:06.179Z,7.80
2018-11-26T02:18:35.562Z,7.90
2018-11-26T02:21:04.887Z,6.33
2018-11-26T02:23:34.171Z,6.12
2018-11-26T02:26:03.481Z,4.87
2018-11-26T02:28:32.771Z,5.17
2018-11-26T02:31:02.097Z,9.00
2018-11-26T02:33:31.401Z,10.38
2018-11-26T02:36:00.694Z,3.25
2018-11-26T02:38:30.018Z,7.80
2018-11-26T02:40:59.318Z,7.42
2018-11-26T02:43:28.597Z,7.60
2018-11-26T02:45:57.892Z,6.42
2018-11-26T02:48:27.223Z,7.40
2018-11-26T02:50:56.504Z,6.47
2018-11-26T02:53:25.840Z,4.95
2018-11-26T02:55:55.135Z,9.60
2018-11-26T02:58:24.497Z,4.87
2018-11-26T03:00:53.839Z,6.12
2018-11-26T03:03:23.139Z,7.53
2018-11-26T03:05:52.457Z,8.65
2018-11-26T03:08:21.758Z,4.25
2018-11-26T03:10:51.061Z,5.33
2018-11-26T03:13:20.359Z,3.90
2018-11-26T03:15:49.653Z,5.05
2018-11-26T03:18:18.986Z,4.50
2018-11-26T03:20:48.298Z,4.22
2018-11-26T03:23:17.613Z,5.37
2018-11-26T03:25:46.925Z,4.50
2018-11-26T03:28:16.277Z,4.42
2018-11-26T03:30:45.598Z,5.12
2018-11-26T03:33:14.906Z,5.58
2018-11-26T03:35:44.238Z,6.55
2018-11-26T03:38:34.429Z,6.22
2018-11-26T03:41:03.767Z,5.42
2018-11-26T03:43:33.081Z,5.80
2018-11-26T03:46:02.392Z,4.00
2018-11-26T03:48:31.803Z,6.75
2018-11-26T03:51:01.118Z,5.85
2018-11-26T03:53:42.510Z,4.15
2018-11-26T03:56:00.788Z,5.08
2018-11-26T03:58:30.100Z,3.70
2018-11-26T04:00:59.482Z,6.35
2018-11-26T04:03:28.803Z,4.25
2018-11-26T04:05:58.144Z,6.83
2018-11-26T04:08:27.451Z,4.92
2018-11-26T04:10:56.769Z,6.60
2018-11-26T04:13:26.114Z,6.53
2018-11-26T04:15:55.426Z,5.70
2018-11-26T04:18:24.755Z,4.67
2018-11-26T04:20:54.061Z,4.45
2018-11-26T04:23:23.390Z,7.25
2018-11-26T04:25:52.680Z,4.67
2018-11-26T04:28:22.004Z,10.85
2018-11-26T04:30:51.289Z,5.08
2018-11-26T04:33:20.616Z,8.88
2018-11-26T04:35:49.914Z,7.85
2018-11-26T04:38:19.228Z,5.40
2018-11-26T04:40:48.510Z,5.03
2018-11-26T04:43:17.825Z,4.70
2018-11-26T04:45:47.139Z,6.67
2018-11-26T04:48:16.475Z,3.50
2018-11-26T04:50:45.787Z,4.90
2018-11-26T04:53:15.132Z,6.05
2018-11-26T04:55:44.397Z,5.20
2018-11-26T04:58:13.715Z,5.53
2018-11-26T05:00:43.022Z,9.00
2018-11-26T05:03:12.381Z,5.15
2018-11-26T05:05:41.704Z,9.33
2018-11-26T05:08:11.020Z,6.33
2018-11-26T05:10:40.321Z,6.87
2018-11-26T05:13:09.654Z,6.85
2018-11-26T05:15:38.940Z,6.90
2018-11-26T05:18:08.236Z,5.25
2018-11-26T05:20:37.557Z,8.08
2018-11-26T05:23:06.898Z,8.25
2018-11-26T05:25:36.214Z,9.55
2018-11-26T05:28:05.814Z,5.53
2018-11-26T05:30:35.161Z,4.97
2018-11-26T05:33:04.480Z,5.53
2018-11-26T05:35:33.785Z,5.15
2018-11-26T05:38:03.095Z,6.80
2018-11-26T05:40:32.416Z,4.12
2018-11-26T05:43:01.702Z,6.15
2018-11-26T05:45:30.994Z,5.35
2018-11-26T05:48:00.266Z,4.28
2018-11-26T05:50:29.575Z,5.72
2018-11-26T05:52:58.932Z,9.08
2018-11-26T05:55:28.265Z,7.50
2018-11-26T05:57:57.579Z,4.58
2018-11-26T06:03:04.557Z,7.53
2018-11-26T06:05:33.904Z,4.20
2018-11-26T06:08:03.270Z,4.12
2018-11-26T06:10:32.632Z,5.25
2018-11-26T06:13:03.067Z,5.65
2018-11-26T06:15:32.117Z,7.92
2018-11-26T06:18:01.401Z,4.75
2018-11-26T06:20:30.703Z,3.90
2018-11-26T06:23:00.033Z,5.35
2018-11-26T06:25:29.350Z,4.08
2018-11-26T06:27:58.645Z,4.75
2018-11-26T06:30:31.403Z,4.75
2018-11-26T06:33:00.728Z,3.67
2018-11-26T06:35:30.015Z,4.95
2018-11-26T06:37:59.280Z,1.87
2018-11-26T06:40:28.574Z,4.47
2018-11-26T06:42:57.852Z,2.60
2018-11-26T06:45:27.155Z,3.60
2018-11-26T06:47:56.479Z,5.58
2018-11-26T06:50:28.867Z,3.70
2018-11-26T06:52:58.277Z,5.90
2018-11-26T06:55:27.645Z,3.20
2018-11-26T06:57:56.935Z,4.30
2018-11-26T07:00:26.314Z,2.75
2018-11-26T07:02:55.751Z,3.75
2018-11-26T07:05:25.029Z,5.67
2018-11-26T07:07:54.334Z,6.75
2018-11-26T07:10:23.616Z,2.20
2018-11-26T07:12:53.032Z,5.35
2018-11-26T07:15:22.964Z,2.55
2018-11-26T07:17:52.490Z,3.65
2018-11-26T07:20:22.526Z,3.55
2018-11-26T07:22:51.818Z,2.02
2018-11-26T07:25:21.981Z,3.22
2018-11-26T07:27:52.793Z,4.20
2018-11-26T07:30:23.536Z,3.35
2018-11-26T07:32:52.819Z,2.22
2018-11-26T07:35:22.119Z,2.60
2018-11-26T07:37:51.393Z,3.75
2018-11-26T07:40:39.725Z,2.42
2018-11-26T07:43:13.372Z,3.90
2018-11-26T07:45:43.848Z,2.60
2018-11-26T07:48:13.701Z,3.27
2018-11-26T07:50:43.003Z,5.55
2018-11-26T07:53:12.874Z,3.83
2018-11-26T07:55:42.366Z,3.35
2018-11-26T07:58:11.657Z,2.85
2018-11-26T08:00:40.925Z,1.80
2018-11-26T08:03:12.465Z,2.75
2018-11-26T08:05:41.749Z,2.10
2018-11-26T08:08:11.081Z,3.72
2018-11-26T08:10:40.360Z,2.72
2018-11-26T08:13:09.659Z,4.95
2018-11-26T08:15:38.936Z,3.33
2018-11-26T08:18:08.256Z,2.85
2018-11-26T08:20:37.572Z,2.42
2018-11-26T08:23:07.347Z,2.40
2018-11-26T08:25:36.650Z,1.95
2018-11-26T08:28:06.189Z,2.58
2018-11-26T08:30:35.466Z,4.83
2018-11-26T08:33:04.769Z,3.55
2018-11-26T08:35:34.145Z,2.80
2018-11-26T08:38:22.157Z,3.77
2018-11-26T08:41:10.161Z,2.20
2018-11-26T08:43:58.187Z,1.82
2018-11-26T08:46:46.547Z,1.85
2018-11-26T08:49:34.575Z,4.22
2018-11-26T08:52:03.874Z,1.42
2018-11-26T08:54:33.164Z,3.00
2018-11-26T08:57:02.435Z,2.12
2018-11-26T08:59:31.720Z,3.22
2018-11-26T09:02:01.012Z,2.42
2018-11-26T09:04:49.013Z,2.40
2018-11-26T09:07:18.296Z,3.55
2018-11-26T09:09:47.597Z,1.52
2018-11-26T09:12:16.899Z,1.55
2018-11-26T09:14:46.187Z,2.80
2018-11-26T09:17:15.455Z,2.85
2018-11-26T09:19:44.734Z,2.90
2018-11-26T09:22:14.012Z,3.08
2018-11-26T09:24:43.295Z,1.27
2018-11-26T09:27:12.566Z,3.60
2018-11-26T09:29:41.858Z,4.25
2018-11-26T09:32:11.154Z,2.45
2018-11-26T09:34:40.508Z,1.40
2018-11-26T09:37:09.793Z,3.05
2018-11-26T09:39:39.082Z,2.52
2018-11-26T09:42:08.360Z,3.10
2018-11-26T09:44:37.653Z,1.85
2018-11-26T09:47:06.918Z,2.52
2018-11-26T09:49:36.204Z,2.25
2018-11-26T09:52:05.882Z,3.90
2018-11-26T09:54:35.244Z,1.60
2018-11-26T09:57:04.514Z,3.15
2018-11-26T09:59:33.802Z,1.32
2018-11-26T10:02:03.100Z,3.47
2018-11-26T10:04:32.412Z,3.30
2018-11-26T10:07:01.748Z,3.27
2018-11-26T10:09:31.057Z,3.72
2018-11-26T10:12:00.363Z,0.95
2018-11-26T10:14:29.644Z,3.02
2018-11-26T10:16:58.963Z,4.45
2018-11-26T10:19:28.597Z,3.75
2018-11-26T10:21:58.452Z,1.72
2018-11-26T10:24:27.754Z,4.60
2018-11-26T10:26:57.043Z,4.03
2018-11-26T10:29:26.332Z,2.40
2018-11-26T10:31:55.615Z,5.62
2018-11-26T10:34:24.878Z,2.60
2018-11-26T10:36:54.178Z,2.98
2018-11-26T10:39:23.459Z,6.58
2018-11-26T10:41:52.749Z,3.30
2018-11-26T10:44:22.016Z,1.20
2018-11-26T10:46:51.382Z,3.17
2018-11-26T10:49:20.685Z,1.75
2018-11-26T10:51:50.009Z,2.42
2018-11-26T10:54:19.282Z,1.47
2018-11-26T10:56:48.591Z,1.85
2018-11-26T10:59:17.858Z,2.87
2018-11-26T11:04:23.824Z,3.00
2018-11-26T11:06:55.799Z,3.37
2018-11-26T11:09:23.310Z,4.58
2018-11-26T11:11:52.593Z,6.00
2018-11-26T11:14:21.866Z,3.42
2018-11-26T11:16:51.157Z,2.27
2018-11-26T11:19:20.427Z,2.95
2018-11-26T11:21:49.704Z,1.85
2018-11-26T11:24:18.973Z,2.83
2018-11-26T11:26:48.258Z,2.80
2018-11-26T11:29:25.276Z,2.47
2018-11-26T11:31:54.533Z,2.77
2018-11-26T11:34:23.805Z,2.62
2018-11-26T11:36:53.096Z,2.12
2018-11-26T11:39:22.397Z,1.70
2018-11-26T11:41:51.692Z,1.70
2018-11-26T11:44:39.691Z,3.98
2018-11-26T11:47:09.001Z,2.12
2018-11-26T11:49:38.297Z,3.62
2018-11-26T11:52:07.604Z,2.67
2018-11-26T11:54:36.912Z,2.15
2018-11-26T11:57:06.239Z,1.52
2018-11-26T11:59:35.594Z,1.45
2018-11-26T12:02:04.914Z,1.10
2018-11-26T12:04:34.370Z,1.35
2018-11-26T12:07:03.713Z,1.50
2018-11-26T12:09:33.136Z,1.67
2018-11-26T12:12:02.433Z,1.65
2018-11-26T12:14:31.801Z,1.72
2018-11-26T12:17:01.096Z,1.65
2018-11-26T12:19:30.422Z,2.33
2018-11-26T12:21:59.723Z,1.57
2018-11-26T12:24:28.996Z,2.17
2018-11-26T12:26:58.309Z,1.45
2018-11-26T12:29:27.590Z,1.10
2018-11-26T12:31:56.896Z,2.35
2018-11-26T12:34:26.165Z,1.75
2018-11-26T12:36:57.820Z,1.87
2018-11-26T12:39:25.665Z,1.85
2018-11-26T12:41:54.952Z,1.65
2018-11-26T12:44:24.231Z,1.50
2018-11-26T12:46:53.528Z,1.95
2018-11-26T12:49:22.818Z,1.52
2018-11-26T12:51:52.094Z,1.05
2018-11-26T12:54:21.378Z,1.67
2018-11-26T12:56:50.671Z,1.98
2018-11-26T12:59:19.967Z,2.08
2018-11-26T13:01:49.252Z,1.07
2018-11-26T13:04:18.571Z,1.37
2018-11-26T13:06:47.849Z,1.15
2018-11-26T13:09:17.134Z,1.10
2018-11-26T13:11:46.420Z,1.10
2018-11-26T13:14:15.711Z,1.15
2018-11-26T13:16:45.055Z,1.10
2018-11-26T13:19:14.333Z,1.27
2018-11-26T13:21:44.010Z,1.80
2018-11-26T13:24:13.293Z,1.10
2018-11-26T13:26:42.577Z,0.80
2018-11-26T13:29:11.880Z,1.57
2018-11-26T13:31:41.264Z,1.10
2018-11-26T13:34:10.546Z,1.27
2018-11-26T13:36:39.832Z,0.93
2018-11-26T13:39:09.972Z,1.00
2018-11-26T13:41:39.306Z,1.55
2018-11-26T13:44:08.581Z,1.07
2018-11-26T13:46:37.849Z,1.35
2018-11-26T13:49:07.169Z,1.60
2018-11-26T13:51:36.461Z,1.20
2018-11-26T13:54:05.844Z,2.65
2018-11-26T13:56:35.123Z,1.00
2018-11-26T13:59:04.420Z,1.55
2018-11-26T14:01:33.694Z,1.20
2018-11-26T14:04:03.014Z,1.67
2018-11-26T14:06:32.290Z,1.72
2018-11-26T14:09:01.601Z,1.47
2018-11-26T14:11:30.911Z,1.00
2018-11-26T14:14:00.262Z,1.00
2018-11-26T14:16:29.538Z,1.15
2018-11-26T14:18:58.859Z,1.37
2018-11-26T14:21:28.133Z,1.35
2018-11-26T14:23:57.433Z,1.02
2018-11-26T14:26:26.789Z,1.10
2018-11-26T14:28:56.081Z,3.02
2018-11-26T14:31:25.370Z,1.98
2018-11-26T14:33:54.666Z,3.70
2018-11-26T14:36:23.943Z,2.35
2018-11-26T14:38:53.228Z,1.65
2018-11-26T14:41:22.556Z,1.35
2018-11-26T14:43:51.840Z,1.70
2018-11-26T14:46:21.125Z,1.40
2018-11-26T14:48:50.411Z,1.90
2018-11-26T14:51:19.688Z,1.80
2018-11-26T14:53:49.005Z,2.02
2018-11-26T14:56:18.334Z,2.08
2018-11-26T14:58:47.608Z,2.25
2018-11-26T15:01:16.913Z,1.07
2018-11-26T15:09:10.385Z,2.20
2018-11-26T15:11:40.259Z,2.62
2018-11-26T15:14:09.539Z,1.85
2018-11-26T15:16:38.834Z,2.10
2018-11-26T15:19:08.104Z,1.35
2018-11-26T15:21:37.386Z,2.35
2018-11-26T15:24:06.758Z,1.45
2018-11-26T15:26:36.051Z,1.80
2018-11-26T15:29:05.498Z,2.45
2018-11-26T15:31:34.795Z,2.72
2018-11-26T15:34:04.098Z,1.75
2018-11-26T15:36:33.386Z,1.95
2018-11-26T15:39:02.684Z,1.40
2018-11-26T15:41:31.983Z,2.08
2018-11-26T15:44:01.253Z,0.90
2018-11-26T15:46:30.528Z,2.70
2018-11-26T15:48:59.792Z,1.27
2018-11-26T15:51:29.106Z,1.98
2018-11-26T15:53:58.374Z,3.50
2018-11-26T15:56:27.662Z,1.32
2018-11-26T15:58:56.928Z,1.55
2018-11-26T16:01:26.210Z,2.72
2018-11-26T16:03:55.485Z,4.78
2018-11-26T16:06:24.786Z,2.47
2018-11-26T16:08:54.043Z,3.00
2018-11-26T16:11:23.364Z,3.15
2018-11-26T16:13:52.641Z,3.60
2018-11-26T16:16:22.062Z,2.27
2018-11-26T16:18:51.399Z,2.40
2018-11-26T16:21:20.719Z,2.45
2018-11-26T16:23:49.994Z,3.55
2018-11-26T16:26:19.274Z,2.87
2018-11-26T16:28:48.544Z,1.57
2018-11-26T16:31:17.843Z,3.67
2018-11-26T16:33:47.110Z,2.08
2018-11-26T16:36:16.385Z,4.03
2018-11-26T16:38:45.668Z,2.92
2018-11-26T16:41:14.985Z,2.20
2018-11-26T16:43:44.277Z,1.32
2018-11-26T16:46:13.547Z,2.62
2018-11-26T16:48:42.861Z,3.72
2018-11-26T16:51:12.124Z,4.35
2018-11-26T16:53:41.447Z,3.08
2018-11-26T16:56:10.710Z,3.77
2018-11-26T16:58:40.008Z,2.25
2018-11-26T17:01:09.269Z,1.32
2018-11-26T17:03:38.547Z,2.62
2018-11-26T17:06:07.864Z,2.00
2018-11-26T17:08:37.151Z,3.80
2018-11-26T17:11:06.429Z,4.70
2018-11-26T17:13:35.722Z,3.70
2018-11-26T17:16:04.998Z,3.95
2018-11-26T17:18:34.298Z,2.42
2018-11-26T17:21:03.617Z,3.72
2018-11-26T17:23:32.901Z,1.42
2018-11-26T17:26:02.167Z,3.80
2018-11-26T17:28:31.531Z,3.17
2018-11-26T17:31:00.803Z,3.20
2018-11-26T17:33:30.155Z,3.75
2018-11-26T17:35:59.449Z,2.20
2018-11-26T17:38:28.787Z,2.05
2018-11-26T17:40:58.070Z,2.35
2018-11-26T17:43:27.350Z,2.10
2018-11-26T17:45:56.643Z,4.80
2018-11-26T17:48:25.972Z,2.27
2018-11-26T17:50:55.267Z,2.90
2018-11-26T17:53:24.552Z,4.28
2018-11-26T17:55:55.120Z,1.82
2018-11-26T17:58:25.704Z,2.62
2018-11-26T18:01:33.095Z,3.30
2018-11-26T18:04:02.389Z,2.52
2018-11-26T18:06:31.784Z,2.37
2018-11-26T18:09:01.168Z,2.40
2018-11-26T18:11:30.470Z,1.62
2018-11-26T18:13:59.761Z,2.95
2018-11-26T18:16:29.086Z,4.25
2018-11-26T18:18:58.385Z,2.37
2018-11-26T18:21:27.706Z,4.65
2018-11-26T18:23:57.085Z,4.85
2018-11-26T18:26:26.517Z,3.15
2018-11-26T18:28:55.860Z,4.47
2018-11-26T18:31:25.161Z,3.83
2018-11-26T18:33:54.442Z,2.58
2018-11-26T18:36:23.764Z,3.12
2018-11-26T18:38:53.057Z,2.47
2018-11-26T18:41:22.404Z,2.15
2018-11-26T18:43:51.703Z,4.22
2018-11-26T18:46:21.019Z,4.90
2018-11-26T18:48:50.292Z,3.27
2018-11-26T18:51:19.625Z,3.45
2018-11-26T18:53:48.914Z,2.05
2018-11-26T18:56:18.209Z,2.22
2018-11-26T18:58:47.520Z,3.47
2018-11-26T19:01:16.802Z,2.98
2018-11-26T19:03:46.076Z,3.90
2018-11-26T19:06:15.358Z,2.05
2018-11-26T19:08:44.955Z,3.70
2018-11-26T19:11:16.030Z,2.10
2018-11-26T19:14:08.337Z,6.78
2018-11-26T19:16:40.125Z,3.65
2018-11-26T19:19:09.396Z,3.42
2018-11-26T19:21:38.687Z,3.00
2018-11-26T19:24:07.977Z,3.22
2018-11-26T19:26:37.259Z,3.72
2018-11-26T19:29:06.912Z,4.50
2018-11-26T19:31:36.236Z,2.30
2018-11-26T19:34:05.546Z,2.58
2018-11-26T19:36:34.807Z,2.60
2018-11-26T19:39:23.687Z,3.15
2018-11-26T19:41:52.973Z,3.55
2018-11-26T19:44:22.244Z,2.05
2018-11-26T19:46:51.551Z,5.50
2018-11-26T19:49:20.860Z,3.87
2018-11-26T19:51:50.118Z,4.10
2018-11-26T19:54:19.410Z,3.20
2018-11-26T19:56:48.671Z,3.22
2018-11-26T19:59:17.949Z,4.85
2018-11-26T20:01:47.221Z,3.65
2018-11-26T20:04:37.459Z,5.05
2018-11-26T20:07:07.358Z,4.67
2018-11-26T20:09:36.718Z,2.55
2018-11-26T20:12:06.401Z,2.45
2018-11-26T20:14:35.713Z,4.55
2018-11-26T20:17:04.981Z,2.37
2018-11-26T20:19:34.287Z,1.90
2018-11-26T20:22:03.576Z,3.58
2018-11-26T20:24:32.854Z,2.40
2018-11-26T20:27:02.109Z,3.65
2018-11-26T20:29:31.406Z,4.50
2018-11-26T20:32:00.680Z,5.42
2018-11-26T20:34:29.961Z,3.62
2018-11-26T20:39:49.731Z,3.58
2018-11-26T20:42:19.164Z,3.10
2018-11-26T20:44:48.464Z,4.90
2018-11-26T20:47:17.745Z,2.30
2018-11-26T20:49:47.029Z,5.92
2018-11-26T20:52:16.330Z,5.95
2018-11-26T20:54:45.612Z,2.65
2018-11-26T20:57:14.895Z,4.95
2018-11-26T20:59:44.409Z,2.90
2018-11-26T21:02:13.677Z,4.30
2018-11-26T21:04:43.008Z,2.52
2018-11-26T21:07:12.354Z,4.00
2018-11-26T21:10:01.466Z,2.45
2018-11-26T21:12:30.734Z,2.92
2018-11-26T21:15:00.013Z,1.70
2018-11-26T21:17:29.279Z,2.33
2018-11-26T21:19:58.576Z,3.20
2018-11-26T21:22:27.848Z,4.35
2018-11-26T21:24:57.137Z,2.15
2018-11-26T21:27:26.422Z,3.98
2018-11-26T21:32:32.069Z,2.27
2018-11-26T21:35:01.957Z,2.67
2018-11-26T21:37:32.169Z,3.77
2018-11-26T21:40:01.454Z,2.00
2018-11-26T21:42:31.072Z,3.12
2018-11-26T21:45:00.434Z,3.12
2018-11-26T21:47:29.649Z,3.87
2018-11-26T21:49:59.263Z,3.40
2018-11-26T21:52:28.539Z,1.70
2018-11-26T21:54:57.840Z,2.45
2018-11-26T21:57:29.913Z,5.05
2018-11-26T21:59:59.194Z,3.20
2018-11-26T22:02:28.538Z,4.85
2018-11-26T22:04:58.304Z,2.77
2018-11-26T22:07:27.598Z,8.05
2018-11-26T22:09:56.899Z,5.80
2018-11-26T22:12:26.253Z,3.50
2018-11-26T22:14:55.549Z,3.60
2018-11-26T22:17:25.120Z,4.72
2018-11-26T22:20:14.007Z,4.45
2018-11-26T22:22:43.289Z,3.87
2018-11-26T22:25:13.048Z,6.30
2018-11-26T22:27:42.547Z,3.80
2018-11-26T22:30:31.827Z,3.85
2018-11-26T22:33:01.127Z,5.15
2018-11-26T22:35:30.424Z,4.87
2018-11-26T22:37:59.831Z,4.15
2018-11-26T22:40:29.138Z,2.40
2018-11-26T22:42:58.512Z,2.40
2018-11-26T22:45:47.607Z,6.25
2018-11-26T22:48:17.063Z,6.20
2018-11-26T22:50:46.741Z,5.90
2018-11-26T22:53:16.022Z,5.22
2018-11-26T22:55:45.339Z,6.15
2018-11-26T22:58:15.623Z,4.75
2018-11-26T23:01:04.125Z,5.53
2018-11-26T23:03:33.510Z,6.87
2018-11-26T23:06:02.815Z,7.62
2018-11-26T23:08:32.226Z,9.90
2018-11-26T23:11:01.571Z,5.05
2018-11-26T23:13:30.808Z,8.83
2018-11-26T23:16:00.259Z,3.92
2018-11-26T23:18:29.548Z,4.20
2018-11-26T23:20:58.866Z,5.55
2018-11-26T23:23:28.301Z,4.62
2018-11-26T23:25:57.600Z,4.15
2018-11-26T23:28:26.968Z,5.33
2018-11-26T23:30:56.275Z,4.45
2018-11-26T23:33:25.552Z,3.55
2018-11-26T23:35:54.844Z,3.72
2018-11-26T23:38:24.146Z,4.50
2018-11-26T23:40:53.416Z,4.45
2018-11-26T23:43:22.722Z,2.87
2018-11-26T23:45:52.000Z,4.08
2018-11-26T23:48:21.298Z,4.90
2018-11-26T23:50:50.574Z,2.58
2018-11-26T23:53:19.858Z,2.80
2018-11-26T23:55:49.136Z,4.95
2018-11-26T23:58:18.446Z,4.85
